Sint Maarten/Princess Juliana International Airport

Airport
ICAO code: 
TNCM
IATA Code: 
SXM
Summary
ICAO Region: 
CARSAM
Territory: 
Location: 
Simpson Bay, Sint Maarten
Serving: 
Philipsburg
Elevation: 
13 ft
Coordinates: 
Aerial View: 
18° 2' 29.307" N, 63° 6' 40.802" W
Metar
Observation
TNCM 181000Z 08007KT 9999 FEW018 25/21 Q1017 NOSIG
Station
Juliana Airport, Saint Maarten
Date/Time
2022-01-18 10:00:00
Wind direction
80°
Wind speed
07 kts
Lowest cloud amount
few clouds
Temperature
25°C
Dew point
21°C
Humidity
78%
QNH
1017 hPa
Weather condition
n/a

Princess Juliana International Airport also known as Sint Maarten International Airport serves the Dutch part of the island of Saint Martin. There is also an airport on the French side of the island near Marigot, called Aéroport de Grand Case or L'Espérance Airport.

Runways

Designator Length Width Surface Rops
10/28 2180 45 ASPH-CONC Yes/Yes
9/27 2349 45 ASP Yes/Yes
Airport map: 
Aerial View: 

Accidents and Serious Incidents at or in the vicinity of TNCM

SKYbrary Partners:

Safety knowledge contributed by: